Time;durP1;ratioP1;P1;durP2;ratioP2;P2;SDS_P1;SDS_P2;PMS_P1;PMS_P2;Temp;Humidity;BMP_temperature;BMP_pressure;BME280_temperature;BME280_humidity;BME280_pressure;Samples;Min_cycle;Max_cycle;Signal;HPM_P1;HPM_P2
2021/07/07 00:00:01;;;;;;;2.27;2.07;;;20.60;99.90;;;;;;5011428;28;20491;-70
2021/07/07 00:02:31;;;;;;;2.23;1.50;;;20.60;99.90;;;;;;5022076;28;20440;-70
2021/07/07 00:04:59;;;;;;;1.87;1.63;;;20.50;99.90;;;;;;5010327;28;20417;-71
2021/07/07 00:07:27;;;;;;;1.90;1.50;;;20.50;99.90;;;;;;5012608;28;21019;-70
2021/07/07 00:09:57;;;;;;;2.00;1.67;;;20.50;99.90;;;;;;5013923;28;20968;-70
2021/07/07 00:12:25;;;;;;;1.57;1.47;;;20.50;99.90;;;;;;5004201;28;20488;-71
2021/07/07 00:14:53;;;;;;;3.57;1.70;;;20.60;99.90;;;;;;5021429;28;20392;-71
2021/07/07 00:17:22;;;;;;;3.77;1.80;;;20.50;99.90;;;;;;5009390;28;20470;-70
2021/07/07 00:19:50;;;;;;;5.00;1.67;;;20.50;99.90;;;;;;5016174;28;20471;-72
2021/07/07 00:22:19;;;;;;;2.20;2.00;;;20.40;99.90;;;;;;5002235;28;20464;-71
2021/07/07 00:24:47;;;;;;;3.17;1.63;;;20.40;99.90;;;;;;5023832;28;20429;-71
2021/07/07 00:27:16;;;;;;;1.70;1.53;;;20.50;99.90;;;;;;5015288;28;20480;-71
2021/07/07 00:29:44;;;;;;;1.63;1.30;;;20.40;99.90;;;;;;5011114;28;20851;-71
2021/07/07 00:32:14;;;;;;;2.37;1.90;;;20.30;99.90;;;;;;5004244;28;20515;-71
2021/07/07 00:34:43;;;;;;;1.90;1.43;;;20.30;99.90;;;;;;5013556;28;20451;-70
2021/07/07 00:37:11;;;;;;;2.07;1.60;;;20.30;99.90;;;;;;5024739;28;20466;-71
2021/07/07 00:39:39;;;;;;;2.37;1.60;;;20.20;99.90;;;;;;5010825;28;20400;-70
2021/07/07 00:42:07;;;;;;;3.33;1.20;;;20.10;99.90;;;;;;5007395;28;20490;-71
2021/07/07 00:44:38;;;;;;;2.30;1.80;;;20.00;99.90;;;;;;5018288;28;20524;-71
2021/07/07 00:47:06;;;;;;;1.77;1.47;;;20.00;99.90;;;;;;5009617;28;20443;-71
2021/07/07 00:49:35;;;;;;;1.37;1.27;;;20.00;99.90;;;;;;4999288;28;20832;-71
2021/07/07 00:52:04;;;;;;;2.10;1.90;;;20.00;99.90;;;;;;5014196;28;20967;-71
2021/07/07 00:54:34;;;;;;;2.17;1.93;;;20.00;99.90;;;;;;5008372;28;20411;-71
2021/07/07 00:57:02;;;;;;;1.97;1.70;;;20.00;99.90;;;;;;5000435;28;20520;-68
2021/07/07 00:59:32;;;;;;;2.10;1.90;;;19.90;99.90;;;;;;5019211;28;20920;-71
2021/07/07 01:02:03;;;;;;;1.90;1.70;;;19.90;99.90;;;;;;5008694;28;20463;-71
2021/07/07 01:04:32;;;;;;;1.90;1.53;;;19.90;99.90;;;;;;5014571;28;20483;-70
2021/07/07 01:07:00;;;;;;;2.73;1.90;;;19.80;99.90;;;;;;5000094;28;21029;-70
2021/07/07 01:09:28;;;;;;;3.40;1.90;;;19.80;99.90;;;;;;5020867;28;21191;-70
2021/07/07 01:11:56;;;;;;;2.47;2.13;;;19.80;99.90;;;;;;5008879;28;20456;-70
2021/07/07 01:14:24;;;;;;;5.50;2.13;;;19.80;99.90;;;;;;5012863;28;20472;-70
2021/07/07 01:16:54;;;;;;;2.20;1.87;;;19.90;99.90;;;;;;5010003;28;20520;-70
2021/07/07 01:19:24;;;;;;;2.33;2.13;;;19.80;99.90;;;;;;5013930;28;20411;-70
2021/07/07 01:21:53;;;;;;;3.20;1.70;;;19.90;99.90;;;;;;5008893;28;20451;-70
2021/07/07 01:24:22;;;;;;;1.33;1.20;;;19.80;99.90;;;;;;4997999;28;20854;-70
2021/07/07 01:26:50;;;;;;;3.27;2.03;;;19.90;99.90;;;;;;5011725;28;20514;-70
2021/07/07 01:29:18;;;;;;;2.00;1.77;;;19.90;99.90;;;;;;5008462;28;20445;-70
2021/07/07 01:31:46;;;;;;;2.07;1.87;;;19.80;99.90;;;;;;5004516;28;20523;-70
2021/07/07 01:34:15;;;;;;;1.80;1.70;;;19.80;99.90;;;;;;5025543;28;20399;-70
2021/07/07 01:36:43;;;;;;;3.70;2.10;;;19.90;99.90;;;;;;5012247;28;20469;-70
2021/07/07 01:39:13;;;;;;;2.50;1.57;;;20.00;99.90;;;;;;5014583;28;20475;-70
2021/07/07 01:41:41;;;;;;;2.30;1.77;;;19.90;99.90;;;;;;5013680;28;20509;-70
2021/07/07 01:44:09;;;;;;;3.13;1.83;;;19.70;99.90;;;;;;5018849;28;20425;-70
2021/07/07 01:46:37;;;;;;;7.87;1.67;;;19.80;99.90;;;;;;5012081;28;20456;-70
2021/07/07 01:49:06;;;;;;;6.67;2.53;;;19.80;99.90;;;;;;5004164;28;20500;-70
2021/07/07 01:51:35;;;;;;;1.67;1.53;;;19.70;99.90;;;;;;5013923;28;20516;-70
2021/07/07 01:54:03;;;;;;;3.00;2.33;;;19.60;99.90;;;;;;5021511;28;20396;-70
2021/07/07 01:56:33;;;;;;;2.03;1.77;;;19.50;99.90;;;;;;5012788;28;20403;-70
2021/07/07 01:59:01;;;;;;;2.90;2.37;;;19.60;99.90;;;;;;5017636;28;20899;-70
2021/07/07 02:01:29;;;;;;;2.27;2.07;;;19.70;99.90;;;;;;5012408;28;20452;-71
2021/07/07 02:03:58;;;;;;;2.40;1.90;;;19.80;99.90;;;;;;5009281;28;20486;-71
2021/07/07 02:06:27;;;;;;;2.40;2.17;;;19.70;99.90;;;;;;5012546;28;20513;-71
2021/07/07 02:08:56;;;;;;;3.23;2.57;;;19.70;99.90;;;;;;5022833;28;20475;-71
2021/07/07 02:11:24;;;;;;;4.43;2.07;;;19.80;99.90;;;;;;5011931;28;20440;-71
2021/07/07 02:13:53;;;;;;;3.30;2.40;;;19.90;99.90;;;;;;5003707;28;20492;-71
2021/07/07 02:16:22;;;;;;;3.77;2.13;;;19.80;99.90;;;;;;5013953;28;20421;-71
2021/07/07 02:18:50;;;;;;;1.93;1.70;;;19.60;99.90;;;;;;5005974;28;20524;-71
2021/07/07 02:21:18;;;;;;;2.00;1.80;;;19.60;99.90;;;;;;5022487;28;20415;-71
2021/07/07 02:23:46;;;;;;;2.70;2.50;;;19.50;99.90;;;;;;5011972;28;20796;-70
2021/07/07 02:26:14;;;;;;;2.50;2.10;;;19.30;99.90;;;;;;5016194;28;20433;-70
2021/07/07 02:28:42;;;;;;;3.00;2.53;;;19.20;99.90;;;;;;5004107;28;20446;-70
2021/07/07 02:31:12;;;;;;;2.97;2.50;;;19.20;99.90;;;;;;5024366;28;20419;-70
2021/07/07 02:33:41;;;;;;;2.90;2.20;;;19.20;99.90;;;;;;5017403;28;20466;-70
2021/07/07 02:36:09;;;;;;;1.90;1.67;;;19.40;99.90;;;;;;5011098;28;20772;-71
2021/07/07 02:38:37;;;;;;;3.60;2.10;;;19.40;99.90;;;;;;5002199;28;20420;-71
2021/07/07 02:41:05;;;;;;;2.53;2.30;;;19.30;99.90;;;;;;5023562;28;20444;-71
2021/07/07 02:43:34;;;;;;;2.47;2.00;;;19.40;99.90;;;;;;5017089;28;20487;-71
2021/07/07 02:46:03;;;;;;;1.97;1.77;;;19.50;99.90;;;;;;5009639;28;20423;-71
2021/07/07 02:48:32;;;;;;;2.37;2.17;;;19.50;99.90;;;;;;5003366;28;20592;-70
2021/07/07 02:51:01;;;;;;;2.10;1.90;;;19.60;99.90;;;;;;5019473;28;20455;-70
2021/07/07 02:53:29;;;;;;;2.40;1.60;;;19.60;99.90;;;;;;5011845;28;20425;-70
2021/07/07 02:55:57;;;;;;;2.83;2.37;;;19.60;99.90;;;;;;5016524;28;20483;-70
2021/07/07 02:58:25;;;;;;;2.87;2.47;;;19.50;99.90;;;;;;5015459;28;20484;-70
2021/07/07 03:00:53;;;;;;;3.87;3.07;;;19.50;99.90;;;;;;5009954;28;20461;-70
2021/07/07 03:03:23;;;;;;;2.63;1.50;;;19.40;99.90;;;;;;5014631;28;20458;-70
2021/07/07 03:05:54;;;;;;;2.00;1.80;;;19.40;99.90;;;;;;5012530;28;20436;-70
2021/07/07 03:08:24;;;;;;;2.07;1.87;;;19.40;99.90;;;;;;5002865;28;20469;-71
2021/07/07 03:10:53;;;;;;;2.00;1.83;;;19.70;99.90;;;;;;5019604;28;20423;-71
2021/07/07 03:13:23;;;;;;;3.00;2.30;;;19.70;99.90;;;;;;5011335;28;20407;-71
2021/07/07 03:15:52;;;;;;;3.80;2.17;;;19.70;99.90;;;;;;5010567;28;20445;-71
2021/07/07 03:18:21;;;;;;;2.43;2.23;;;19.70;99.90;;;;;;5011502;28;20469;-71
2021/07/07 03:20:53;;;;;;;1.80;1.70;;;19.70;99.90;;;;;;5014714;28;20427;-71
2021/07/07 03:23:23;;;;;;;2.53;2.33;;;19.60;99.90;;;;;;5004242;28;20462;-71
2021/07/07 03:25:52;;;;;;;6.90;2.17;;;19.80;99.90;;;;;;5021633;28;20399;-71
2021/07/07 03:28:22;;;;;;;4.47;1.97;;;19.70;99.90;;;;;;4999458;28;20466;-70
2021/07/07 03:30:50;;;;;;;2.50;2.30;;;19.60;99.90;;;;;;5010559;28;20449;-70
2021/07/07 03:33:19;;;;;;;4.37;2.80;;;19.30;99.90;;;;;;5003836;28;20466;-70
2021/07/07 03:35:47;;;;;;;4.57;2.60;;;19.10;99.90;;;;;;5016592;28;20486;-70
2021/07/07 03:38:17;;;;;;;3.00;2.13;;;19.20;99.90;;;;;;5001184;28;20444;-71
2021/07/07 03:40:45;;;;;;;7.07;2.93;;;19.10;99.90;;;;;;5024426;28;20941;-70
2021/07/07 03:43:13;;;;;;;2.63;2.00;;;19.10;99.90;;;;;;5015918;28;20466;-70
2021/07/07 03:45:41;;;;;;;5.40;2.50;;;19.30;99.90;;;;;;5009816;28;20864;-71
2021/07/07 03:48:09;;;;;;;2.80;2.60;;;19.30;99.90;;;;;;5005037;28;20481;-71
2021/07/07 03:50:39;;;;;;;3.07;2.73;;;19.30;99.90;;;;;;5019685;28;20974;-71
2021/07/07 03:53:08;;;;;;;3.30;2.17;;;19.20;99.90;;;;;;5011326;28;20941;-71
2021/07/07 03:55:38;;;;;;;3.93;2.43;;;19.30;99.90;;;;;;5016372;28;21182;-71
2021/07/07 03:58:06;;;;;;;4.23;3.03;;;19.30;99.90;;;;;;5002731;28;20483;-71
2021/07/07 04:00:34;;;;;;;3.13;2.17;;;19.40;99.90;;;;;;5012891;28;20420;-71
2021/07/07 04:03:03;;;;;;;7.53;2.60;;;19.40;99.90;;;;;;5001810;28;20879;-71
2021/07/07 04:05:31;;;;;;;2.30;2.10;;;19.30;99.90;;;;;;5022958;28;20458;-71
2021/07/07 04:07:59;;;;;;;2.50;2.30;;;19.20;99.90;;;;;;5009668;28;20429;-71
2021/07/07 04:10:28;;;;;;;2.10;1.90;;;19.20;99.90;;;;;;5013123;28;20462;-72
2021/07/07 04:12:58;;;;;;;3.20;2.80;;;19.20;99.90;;;;;;5012758;28;20466;-71
2021/07/07 04:15:26;;;;;;;2.60;2.40;;;19.30;99.90;;;;;;5009481;28;20913;-71
2021/07/07 04:17:54;;;;;;;2.70;2.47;;;19.40;99.90;;;;;;5007630;28;20448;-71
2021/07/07 04:20:23;;;;;;;4.90;2.60;;;19.50;99.90;;;;;;5032765;28;20458;-71
2021/07/07 04:22:52;;;;;;;5.73;2.70;;;19.60;99.90;;;;;;5036286;28;20411;-71
2021/07/07 04:25:20;;;;;;;3.90;2.87;;;19.40;99.90;;;;;;5032977;28;21142;-71
2021/07/07 04:27:48;;;;;;;3.30;3.00;;;19.30;99.90;;;;;;5030115;28;21336;-72
2021/07/07 04:30:20;;;;;;;3.77;3.10;;;19.20;99.90;;;;;;5037096;28;20446;-72
2021/07/07 04:32:49;;;;;;;3.00;2.70;;;19.00;99.90;;;;;;5024832;28;20455;-73
2021/07/07 04:35:18;;;;;;;2.97;2.53;;;18.90;99.90;;;;;;5043625;28;20464;-72
2021/07/07 04:37:48;;;;;;;3.27;2.90;;;18.90;99.90;;;;;;5027488;28;20873;-72
2021/07/07 04:40:19;;;;;;;2.77;2.57;;;18.90;99.90;;;;;;5030561;28;20490;-72
2021/07/07 04:42:47;;;;;;;2.80;2.50;;;18.90;99.90;;;;;;5030111;28;20465;-71
2021/07/07 04:45:18;;;;;;;2.90;2.57;;;19.20;99.90;;;;;;5036584;28;20458;-71
2021/07/07 04:47:46;;;;;;;4.90;3.30;;;19.30;99.90;;;;;;5029127;28;20422;-71
2021/07/07 04:50:18;;;;;;;2.83;2.50;;;19.30;99.90;;;;;;5034434;28;20986;-71
2021/07/07 04:52:46;;;;;;;3.00;2.20;;;19.40;99.90;;;;;;5029152;28;20501;-72
2021/07/07 04:55:16;;;;;;;4.27;3.17;;;19.50;99.90;;;;;;5021252;28;20465;-72
2021/07/07 04:57:44;;;;;;;4.40;2.80;;;19.80;99.90;;;;;;5030283;28;20529;-71
2021/07/07 05:00:16;;;;;;;3.43;3.07;;;19.90;99.90;;;;;;5037972;28;20418;-71
2021/07/07 05:02:47;;;;;;;4.80;2.57;;;19.80;1.00;;;;;;5061212;28;20770;-71
2021/07/07 05:05:17;;;;;;;5.00;2.90;;;19.80;1.00;;;;;;5033828;28;20579;-71
2021/07/07 05:07:46;;;;;;;3.10;2.70;;;19.60;1.00;;;;;;5028677;28;20428;-69
2021/07/07 05:10:16;;;;;;;6.47;4.60;;;19.60;99.90;;;;;;5028647;28;20468;-71
2021/07/07 05:12:44;;;;;;;4.97;2.50;;;19.50;99.90;;;;;;5029604;28;20504;-71
2021/07/07 05:15:14;;;;;;;5.33;3.50;;;19.60;99.90;;;;;;5037188;28;20406;-72
2021/07/07 05:17:44;;;;;;;4.10;3.50;;;19.70;99.90;;;;;;5028630;28;20398;-72
2021/07/07 05:20:15;;;;;;;3.77;3.27;;;19.50;99.90;;;;;;5034780;28;20483;-71
2021/07/07 05:22:44;;;;;;;5.93;3.47;;;19.50;99.90;;;;;;5060883;28;20439;-71
2021/07/07 05:25:14;;;;;;;6.73;4.90;;;19.60;99.90;;;;;;5022317;28;20504;-72
2021/07/07 05:27:42;;;;;;;4.70;4.17;;;19.60;99.90;;;;;;5022885;28;20548;-72
2021/07/07 05:30:13;;;;;;;8.53;4.40;;;19.40;1.00;;;;;;5018234;28;20818;-72
2021/07/07 05:32:41;;;;;;;4.10;3.70;;;19.30;1.00;;;;;;5002972;28;20454;-72
2021/07/07 05:35:10;;;;;;;4.93;3.20;;;19.20;99.90;;;;;;5024945;28;20498;-72
2021/07/07 05:37:46;;;;;;;3.30;3.00;;;19.10;1.00;;;;;;5026059;28;20450;-71
2021/07/07 05:40:16;;;;;;;7.27;2.90;;;19.10;1.00;;;;;;5016302;28;20578;-71
2021/07/07 05:42:50;;;;;;;8.40;4.37;;;19.30;99.90;;;;;;5036923;28;20836;-73
2021/07/07 05:45:19;;;;;;;3.70;2.90;;;19.50;1.00;;;;;;5026911;28;20488;-72
2021/07/07 05:47:47;;;;;;;4.80;3.73;;;19.60;99.90;;;;;;5025788;28;20449;-73
2021/07/07 05:50:17;;;;;;;4.60;2.80;;;19.70;1.00;;;;;;5016709;28;20526;-73
2021/07/07 05:52:47;;;;;;;4.47;2.50;;;19.80;1.00;;;;;;5017551;28;20483;-72
2021/07/07 05:55:16;;;;;;;2.50;2.30;;;19.80;99.90;;;;;;5027831;28;20407;-72
2021/07/07 05:57:44;;;;;;;6.90;2.90;;;19.80;99.90;;;;;;5018635;28;20432;-72
2021/07/07 06:00:16;;;;;;;2.53;2.20;;;19.70;99.90;;;;;;5007867;28;20469;-71
2021/07/07 06:02:47;;;;;;;2.20;1.90;;;19.70;99.90;;;;;;5009447;28;20434;-71
2021/07/07 06:05:16;;;;;;;4.00;2.20;;;19.70;99.90;;;;;;5010852;28;20502;-72
2021/07/07 06:07:47;;;;;;;3.43;2.20;;;19.80;85.10;;;;;;5011657;28;20521;-71
2021/07/07 06:10:18;;;;;;;4.10;3.00;;;19.80;16.00;;;;;;5011186;28;20527;-71
2021/07/07 06:12:46;;;;;;;5.63;3.07;;;19.70;55.00;;;;;;5007768;28;20429;-71
2021/07/07 06:15:15;;;;;;;5.20;3.20;;;19.60;99.90;;;;;;5000659;28;20893;-71
2021/07/07 06:17:44;;;;;;;3.73;2.47;;;19.40;99.90;;;;;;5011617;28;20498;-71
2021/07/07 06:20:15;;;;;;;4.30;3.00;;;19.40;1.00;;;;;;5015235;28;20435;-71
2021/07/07 06:22:45;;;;;;;2.67;2.30;;;19.50;1.00;;;;;;5011431;28;20421;-71
2021/07/07 06:25:16;;;;;;;3.60;3.13;;;19.60;1.00;;;;;;5001308;28;20505;-72
2021/07/07 06:27:45;;;;;;;3.43;2.53;;;19.60;1.00;;;;;;5013331;28;20400;-71
2021/07/07 06:30:16;;;;;;;2.90;2.63;;;19.60;1.00;;;;;;5016793;28;20520;-71
2021/07/07 06:32:46;;;;;;;5.33;3.40;;;19.70;1.00;;;;;;5006153;28;20487;-72
2021/07/07 06:35:15;;;;;;;3.67;3.27;;;19.80;1.00;;;;;;5017741;28;20415;-71
2021/07/07 06:37:43;;;;;;;3.87;3.23;;;19.70;1.00;;;;;;5013169;28;20999;-71
2021/07/07 06:40:15;;;;;;;3.53;3.00;;;19.70;1.00;;;;;;5016570;28;20402;-71
2021/07/07 06:42:44;;;;;;;7.00;3.97;;;19.50;1.00;;;;;;5005421;28;20461;-71
2021/07/07 06:45:14;;;;;;;10.33;5.77;;;19.50;1.00;;;;;;5023403;28;20411;-71
2021/07/07 06:47:42;;;;;;;3.40;2.50;;;19.50;1.00;;;;;;5015821;28;20466;-71
2021/07/07 06:50:12;;;;;;;4.53;3.37;;;19.50;1.00;;;;;;5011746;28;20574;-71
2021/07/07 06:52:41;;;;;;;4.50;3.10;;;19.60;1.00;;;;;;5000739;28;20579;-71
2021/07/07 06:55:10;;;;;;;4.43;3.50;;;19.70;99.90;;;;;;5021828;28;20437;-71
2021/07/07 06:57:39;;;;;;;5.23;3.97;;;19.70;99.90;;;;;;5017513;28;20473;-71
2021/07/07 07:00:11;;;;;;;4.33;3.73;;;19.80;99.90;;;;;;5012035;28;20496;-71
2021/07/07 07:02:39;;;;;;;3.73;2.60;;;19.90;99.90;;;;;;5007304;28;20494;-71
2021/07/07 07:05:10;;;;;;;2.90;2.57;;;20.10;22.30;;;;;;5021021;28;20426;-71
2021/07/07 07:07:38;;;;;;;6.43;3.20;;;20.10;27.30;;;;;;5012246;28;20423;-71
2021/07/07 07:10:08;;;;;;;2.77;2.57;;;20.10;71.50;;;;;;5016857;28;20574;-71
2021/07/07 07:12:40;;;;;;;4.30;3.13;;;20.10;99.90;;;;;;5014761;28;20486;-71
2021/07/07 07:15:11;;;;;;;5.43;2.70;;;20.10;74.80;;;;;;5013515;28;20854;-71
2021/07/07 07:17:40;;;;;;;2.40;2.17;;;19.90;99.90;;;;;;5005704;28;20566;-71
2021/07/07 07:20:10;;;;;;;3.30;2.40;;;19.70;99.90;;;;;;5022804;28;20425;-71
2021/07/07 07:22:39;;;;;;;8.20;5.20;;;19.50;99.90;;;;;;5011842;28;20823;-71
2021/07/07 07:25:09;;;;;;;2.30;2.10;;;19.70;1.00;;;;;;5016151;28;20487;-71
2021/07/07 07:27:39;;;;;;;4.27;3.17;;;19.70;1.00;;;;;;5002876;28;20495;-71
2021/07/07 07:30:10;;;;;;;2.83;2.63;;;19.70;1.00;;;;;;5015173;28;20495;-71
2021/07/07 07:32:46;;;;;;;6.03;4.87;;;19.60;62.50;;;;;;5008133;28;20422;-72
2021/07/07 07:35:17;;;;;;;7.07;5.50;;;19.50;99.90;;;;;;5029588;28;20399;-72
2021/07/07 07:37:49;;;;;;;6.23;4.10;;;19.40;99.90;;;;;;5030273;28;20422;-72
2021/07/07 07:40:23;;;;;;;4.13;3.33;;;19.50;99.90;;;;;;5019210;28;20483;-72
2021/07/07 07:42:53;;;;;;;3.63;3.27;;;19.70;99.90;;;;;;5020075;28;20472;-70
2021/07/07 07:45:22;;;;;;;5.50;3.83;;;19.80;99.90;;;;;;5030387;28;20806;-70
2021/07/07 07:47:50;;;;;;;3.20;2.90;;;19.80;99.90;;;;;;5030791;28;20435;-71
2021/07/07 07:50:19;;;;;;;3.57;3.27;;;19.70;24.40;;;;;;5019548;28;20829;-71
2021/07/07 07:52:47;;;;;;;3.03;2.73;;;19.70;1.00;;;;;;5030736;28;20411;-71
2021/07/07 07:55:16;;;;;;;6.67;4.13;;;19.70;1.00;;;;;;5021098;28;20540;-71
2021/07/07 07:57:44;;;;;;;5.20;3.20;;;19.70;1.00;;;;;;5022227;28;20449;-71
2021/07/07 08:00:16;;;;;;;4.67;2.50;;;19.70;33.60;;;;;;5039338;28;20403;-71
2021/07/07 08:02:46;;;;;;;3.40;2.33;;;19.90;1.00;;;;;;5029237;28;20418;-71
2021/07/07 08:05:15;;;;;;;5.40;3.00;;;20.00;1.00;;;;;;5035936;28;20586;-71
2021/07/07 08:07:44;;;;;;;2.83;2.43;;;19.90;1.00;;;;;;5030778;28;20550;-70
2021/07/07 08:10:15;;;;;;;3.23;2.93;;;19.60;1.00;;;;;;5021677;28;20464;-71
2021/07/07 08:12:47;;;;;;;5.17;4.13;;;18.90;99.90;;;;;;5014314;28;20458;-70
2021/07/07 08:15:18;;;;;;;4.60;3.77;;;18.90;1.00;;;;;;5018500;28;20814;-71
2021/07/07 08:17:46;;;;;;;5.03;3.30;;;19.00;1.00;;;;;;5010738;28;20399;-70
2021/07/07 08:20:16;;;;;;;4.40;3.23;;;19.10;1.00;;;;;;5016052;28;20508;-71
2021/07/07 08:22:44;;;;;;;4.43;3.70;;;19.20;99.90;;;;;;5016830;28;20428;-71
2021/07/07 08:25:14;;;;;;;4.43;3.63;;;19.40;99.90;;;;;;5003984;28;20891;-70
2021/07/07 08:27:42;;;;;;;8.20;3.50;;;19.50;99.90;;;;;;5025695;28;20463;-70
2021/07/07 08:30:12;;;;;;;3.90;3.50;;;19.50;99.90;;;;;;5039249;28;20485;-70
2021/07/07 08:32:43;;;;;;;6.07;5.47;;;19.50;99.90;;;;;;5023703;28;20407;-71
2021/07/07 08:35:12;;;;;;;5.30;4.80;;;19.50;99.90;;;;;;5015693;28;20502;-71
2021/07/07 08:37:41;;;;;;;5.00;4.23;;;19.60;99.90;;;;;;5011105;28;20437;-71
2021/07/07 08:40:12;;;;;;;9.20;4.97;;;19.70;99.90;;;;;;5009050;28;20483;-71
2021/07/07 08:42:42;;;;;;;21.60;8.70;;;19.80;99.90;;;;;;5011445;28;20463;-70
2021/07/07 08:45:13;;;;;;;5.80;4.63;;;20.00;99.90;;;;;;5025620;28;20429;-71
2021/07/07 08:47:44;;;;;;;12.13;5.03;;;20.20;99.90;;;;;;5026923;28;20415;-70
2021/07/07 08:50:17;;;;;;;4.53;3.60;;;20.40;99.90;;;;;;5034703;28;20462;-71
2021/07/07 08:52:45;;;;;;;3.87;2.77;;;20.50;1.00;;;;;;5028164;28;20436;-71
2021/07/07 08:55:16;;;;;;;3.93;2.47;;;20.30;99.90;;;;;;5028898;28;20466;-71
2021/07/07 08:57:45;;;;;;;3.60;2.60;;;20.20;99.90;;;;;;5047160;28;20463;-71
2021/07/07 09:00:15;;;;;;;5.90;4.90;;;20.10;1.00;;;;;;5051005;28;20404;-71
2021/07/07 09:02:53;;;;;;;7.33;3.07;;;20.10;1.00;;;;;;5030145;28;20430;-71
2021/07/07 09:05:23;;;;;;;3.53;2.53;;;20.00;1.00;;;;;;5018408;28;20468;-72
2021/07/07 09:07:52;;;;;;;3.73;3.37;;;20.10;99.90;;;;;;5029914;28;20895;-72
2021/07/07 09:10:28;;;;;;;3.33;2.60;;;20.20;99.90;;;;;;5030778;28;20487;-71
2021/07/07 09:13:08;;;;;;;3.27;2.97;;;20.20;1.00;;;;;;5030738;28;20494;-71
2021/07/07 09:15:36;;;;;;;4.77;3.27;;;20.30;1.00;;;;;;5035698;28;20500;-71
2021/07/07 09:18:06;;;;;;;4.17;2.80;;;20.50;1.00;;;;;;5025981;28;20904;-71
2021/07/07 09:20:38;;;;;;;5.93;3.50;;;20.40;99.90;;;;;;5039421;28;21779;-72
2021/07/07 09:23:24;;;;;;;4.17;3.37;;;20.40;1.00;;;;;;5029383;28;20761;-71
2021/07/07 09:25:55;;;;;;;4.20;3.27;;;20.30;1.00;;;;;;5012109;28;20464;-71
2021/07/07 09:28:25;;;;;;;3.70;3.23;;;20.20;1.00;;;;;;5014883;28;20462;-70
2021/07/07 09:30:56;;;;;;;3.17;2.87;;;20.10;1.00;;;;;;5009305;28;20430;-70
2021/07/07 09:33:26;;;;;;;7.73;3.03;;;20.20;99.90;;;;;;5002225;28;20458;-71
2021/07/07 09:36:18;;;;;;;3.80;2.97;;;20.30;99.90;;;;;;5018012;28;20912;-71
2021/07/07 09:38:47;;;;;;;5.10;3.23;;;20.20;99.90;;;;;;5012501;28;21037;-71
2021/07/07 09:41:15;;;;;;;5.60;3.53;;;19.90;99.90;;;;;;5010964;28;20420;-71
2021/07/07 09:43:47;;;;;;;4.10;3.43;;;19.90;1.00;;;;;;5008220;28;20422;-71
2021/07/07 09:46:17;;;;;;;3.80;3.20;;;19.70;1.00;;;;;;5000856;28;20533;-71
2021/07/07 09:48:47;;;;;;;3.30;3.00;;;19.60;33.70;;;;;;5021610;28;20400;-71
2021/07/07 09:51:16;;;;;;;4.70;3.27;;;19.40;99.90;;;;;;5012476;28;20467;-71
2021/07/07 09:53:45;;;;;;;3.37;3.07;;;19.20;1.00;;;;;;5017540;28;20477;-71
2021/07/07 09:56:13;;;;;;;3.80;3.37;;;19.30;99.90;;;;;;5008765;28;20466;-70
2021/07/07 09:58:41;;;;;;;6.10;3.50;;;19.50;99.90;;;;;;5023948;28;20410;-70
2021/07/07 10:01:09;;;;;;;4.47;3.23;;;19.70;1.00;;;;;;5013172;28;20431;-71
2021/07/07 10:03:38;;;;;;;5.93;3.90;;;19.70;99.90;;;;;;5018751;28;20505;-69
2021/07/07 10:06:08;;;;;;;3.90;3.17;;;19.70;99.90;;;;;;5014473;28;20966;-69
2021/07/07 10:08:36;;;;;;;4.73;4.20;;;19.90;1.00;;;;;;5016774;28;20483;-70
2021/07/07 10:11:06;;;;;;;7.40;5.67;;;19.90;1.00;;;;;;5004428;28;20449;-70
2021/07/07 10:13:36;;;;;;;7.60;5.33;;;19.90;1.00;;;;;;5027321;28;20508;-69
2021/07/07 10:16:05;;;;;;;11.10;5.80;;;19.90;1.00;;;;;;5018003;28;20540;-69
2021/07/07 10:18:34;;;;;;;3.63;3.33;;;20.10;99.90;;;;;;5012343;28;20418;-71
2021/07/07 10:21:03;;;;;;;5.57;3.40;;;20.00;1.00;;;;;;5009579;28;20462;-69
2021/07/07 10:23:33;;;;;;;6.10;4.00;;;20.20;99.90;;;;;;5012053;28;20411;-69
2021/07/07 10:26:03;;;;;;;4.43;3.93;;;20.40;99.90;;;;;;5012664;28;20403;-69
2021/07/07 10:28:31;;;;;;;8.70;4.23;;;20.70;1.00;;;;;;5018073;28;20498;-70
2021/07/07 10:31:00;;;;;;;5.00;4.30;;;20.70;99.90;;;;;;5016635;28;20462;-73
2021/07/07 10:33:31;;;;;;;5.00;4.23;;;20.40;99.90;;;;;;5013735;28;20454;-71
2021/07/07 10:36:30;;;;;;;9.17;5.80;;;20.60;1.00;;;;;;5002750;28;20908;-70
2021/07/07 10:39:03;;;;;;;3.30;2.80;;;20.90;99.90;;;;;;5000207;28;20419;-70
2021/07/07 10:41:52;;;;;;;3.87;3.00;;;20.80;99.90;;;;;;5007972;28;20458;-70
2021/07/07 10:44:54;;;;;;;4.20;3.50;;;20.70;99.90;;;;;;5012388;28;20518;-70
2021/07/07 10:47:39;;;;;;;4.10;3.17;;;20.50;99.90;;;;;;5016427;28;20552;-70
2021/07/07 10:50:11;;;;;;;4.97;3.10;;;20.30;99.90;;;;;;5012238;28;20399;-70
2021/07/07 10:52:43;;;;;;;4.87;4.47;;;20.40;99.90;;;;;;5013935;28;20488;-70
2021/07/07 10:55:16;;;;;;;7.87;6.63;;;20.60;99.90;;;;;;5003720;28;20749;-70
2021/07/07 10:57:47;;;;;;;9.80;5.60;;;20.60;99.90;;;;;;5010556;28;20510;-70
2021/07/07 11:00:40;;;;;;;6.17;5.53;;;20.50;99.90;;;;;;5012064;28;20472;-70
2021/07/07 11:03:31;;;;;;;5.10;3.97;;;20.90;99.90;;;;;;5015557;28;20822;-71
2021/07/07 11:06:21;;;;;;;7.40;3.90;;;21.10;99.90;;;;;;5017361;28;20454;-71
2021/07/07 11:08:49;;;;;;;5.73;3.93;;;21.30;99.90;;;;;;5012176;28;20438;-70
2021/07/07 11:11:24;;;;;;;4.50;3.07;;;21.40;99.90;;;;;;5010372;28;20473;-70
2021/07/07 11:13:53;;;;;;;3.40;2.73;;;21.60;99.90;;;;;;5018141;28;20468;-69
2021/07/07 11:16:23;;;;;;;3.67;3.03;;;21.70;99.90;;;;;;5003072;28;20916;-70
2021/07/07 11:18:52;;;;;;;3.03;2.57;;;21.90;99.90;;;;;;5025909;28;20417;-70
2021/07/07 11:21:21;;;;;;;3.17;2.90;;;21.80;99.90;;;;;;5016903;28;20491;-70
2021/07/07 11:23:49;;;;;;;4.00;2.90;;;22.00;99.90;;;;;;5011658;28;20519;-70
2021/07/07 11:26:18;;;;;;;9.10;8.20;;;22.20;99.90;;;;;;5007850;28;20520;-70
2021/07/07 11:28:48;;;;;;;4.43;4.03;;;22.30;99.90;;;;;;5024460;28;20403;-71
2021/07/07 11:31:16;;;;;;;4.13;3.20;;;22.50;99.90;;;;;;5021062;28;20578;-70
2021/07/07 11:33:45;;;;;;;6.80;5.53;;;22.60;99.90;;;;;;5036548;28;20463;-70
2021/07/07 11:36:14;;;;;;;4.83;3.40;;;23.00;99.90;;;;;;5019736;28;20484;-70
2021/07/07 11:38:43;;;;;;;6.07;4.03;;;23.40;39.50;;;;;;5030591;28;20535;-70
2021/07/07 11:41:14;;;;;;;4.50;2.53;;;23.60;62.80;;;;;;5030619;28;20419;-70
2021/07/07 11:43:42;;;;;;;3.13;2.40;;;23.90;95.60;;;;;;5019501;28;20456;-69
2021/07/07 11:46:14;;;;;;;2.47;1.77;;;24.00;99.90;;;;;;5035415;28;20974;-71
2021/07/07 11:48:44;;;;;;;3.30;1.93;;;23.90;99.90;;;;;;5030192;28;20903;-71
2021/07/07 11:51:15;;;;;;;3.80;2.87;;;24.00;26.90;;;;;;5029417;28;20521;-70
2021/07/07 11:53:45;;;;;;;7.03;6.20;;;23.80;1.00;;;;;;5030222;28;20497;-69
2021/07/07 11:56:15;;;;;;;2.33;2.13;;;23.90;22.00;;;;;;5018207;28;20473;-70
2021/07/07 11:58:45;;;;;;;2.77;1.70;;;23.60;38.60;;;;;;5019882;28;20644;-70
2021/07/07 12:01:20;;;;;;;7.83;6.77;;;23.70;99.90;;;;;;5030858;28;20452;-69
2021/07/07 12:03:56;;;;;;;3.97;2.43;;;23.80;47.40;;;;;;5022170;28;20853;-69
2021/07/07 12:06:32;;;;;;;3.23;2.93;;;24.20;99.90;;;;;;5036601;28;20431;-69
2021/07/07 12:09:01;;;;;;;3.50;3.20;;;24.60;99.90;;;;;;5021172;28;20927;-70
2021/07/07 12:11:30;;;;;;;3.40;3.10;;;24.30;99.90;;;;;;5044977;28;20531;-70
2021/07/07 12:14:00;;;;;;;3.70;2.60;;;24.50;52.90;;;;;;5035189;28;20506;-69
2021/07/07 12:16:32;;;;;;;5.40;2.30;;;24.50;99.90;;;;;;5029383;28;20915;-70
2021/07/07 12:19:03;;;;;;;4.40;3.03;;;24.60;1.00;;;;;;5028064;28;20584;-69
2021/07/07 12:21:37;;;;;;;3.57;2.83;;;24.40;99.90;;;;;;5035858;28;20843;-69
2021/07/07 12:24:07;;;;;;;2.73;2.40;;;24.10;99.90;;;;;;5021138;28;20403;-69
2021/07/07 12:26:38;;;;;;;3.07;2.30;;;24.10;20.80;;;;;;5038804;28;20440;-69
2021/07/07 12:29:09;;;;;;;2.80;2.50;;;24.10;99.90;;;;;;5015669;28;20491;-69
2021/07/07 12:31:41;;;;;;;2.67;2.37;;;23.80;99.90;;;;;;5029699;28;20419;-69
2021/07/07 12:34:10;;;;;;;4.80;2.67;;;23.90;74.70;;;;;;5028872;28;20976;-70
2021/07/07 12:36:40;;;;;;;2.80;2.10;;;24.20;51.20;;;;;;5026189;28;20421;-70
2021/07/07 12:39:15;;;;;;;6.53;3.10;;;23.90;58.70;;;;;;4999281;28;20454;-70
2021/07/07 12:41:46;;;;;;;4.30;2.83;;;23.70;99.90;;;;;;5008617;28;20411;-69
2021/07/07 12:44:23;;;;;;;3.43;1.50;;;24.30;99.90;;;;;;4998711;28;20455;-70
2021/07/07 12:46:55;;;;;;;1.93;1.73;;;24.80;99.90;;;;;;5009348;28;20776;-69
2021/07/07 12:49:38;;;;;;;2.70;1.67;;;25.30;1.00;;;;;;4998549;28;20503;-69
2021/07/07 12:52:22;;;;;;;2.90;2.57;;;25.50;1.00;;;;;;5008988;28;20983;-69
2021/07/07 12:55:11;;;;;;;2.73;1.60;;;25.30;1.00;;;;;;4999307;28;20551;-69
2021/07/07 12:57:48;;;;;;;2.87;1.73;;;25.00;99.90;;;;;;4997748;28;20480;-69
2021/07/07 13:00:19;;;;;;;2.67;2.07;;;25.10;99.90;;;;;;5008951;28;20524;-70
2021/07/07 13:02:57;;;;;;;2.10;1.80;;;25.10;67.90;;;;;;5028975;28;20477;-68